Time,TemperatureC,DewpointC,PressurehPa,WindDirection,WindDirectionDegrees,WindSpeedKMH,WindSpeedGustKMH,Humidity,HourlyPrecipMM,Conditions,Clouds,dailyrainMM,SolarRadiationWatts/m^2,UVIndex,SoftwareType,DateUTC
2026-09-02 00:04:58,5.3,3.7,1006.2,ESE,107,0.1,1.6,89.7,0.0,,,0.0,0,0,n/a,2026-09-01T12:04:58Z
2026-09-02 00:09:54,5.3,3.8,1006.1,ESE,107,0.5,1.9,90,0.0,,,0.0,0,0,n/a,2026-09-01T12:09:54Z
2026-09-02 00:14:58,5.3,3.8,1006.1,ESE,107,0.3,1.9,90,0.0,,,0.0,0,0,n/a,2026-09-01T12:14:58Z
2026-09-02 00:19:56,5.3,3.8,1006.0,ESE,107,0,1.9,90,0.0,,,0.0,0,0,n/a,2026-09-01T12:19:56Z
2026-09-02 00:24:55,5.2,3.7,1006.0,ESE,107,0.1,1.9,90,0.0,,,0.0,0,0,n/a,2026-09-01T12:24:55Z
2026-09-02 00:29:54,5.1,3.6,1006.1,ESE,107,1.4,3.7,90,0.0,,,0.0,0,0,n/a,2026-09-01T12:29:54Z
2026-09-02 00:34:58,5,3.5,1006.2,ESE,107,0.1,3.7,90,0.0,,,0.0,0,0,n/a,2026-09-01T12:34:58Z
2026-09-02 00:39:53,4.9,3.4,1006.2,ESE,107,1.1,3.7,90,0.0,,,0.0,0,0,n/a,2026-09-01T12:39:53Z
2026-09-02 00:44:54,4.9,3.4,1006.2,ESE,107,0.4,3.7,90,0.0,,,0.0,0,0,n/a,2026-09-01T12:44:54Z
2026-09-02 00:49:57,4.8,3.3,1006.3,ESE,107,0.2,1.9,90,0.0,,,0.0,0,0,n/a,2026-09-01T12:49:57Z
2026-09-02 00:54:57,4.7,3.2,1006.4,ESE,107,0,0,90,0.0,,,0.0,0,0,n/a,2026-09-01T12:54:57Z
2026-09-02 00:59:55,4.7,3.2,1006.4,ESE,107,0,0,90,0.0,,,0.0,0,0,n/a,2026-09-01T12:59:55Z
2026-09-02 01:04:55,4.7,3.2,1006.4,ESE,107,0.1,3.2,90,0.0,,,0.0,0,0,n/a,2026-09-01T13:04:55Z
2026-09-02 01:09:55,4.7,3.2,1006.6,ESE,107,0.3,3.7,90,0.0,,,0.0,0,0,n/a,2026-09-01T13:09:55Z
2026-09-02 01:14:54,4.7,3.2,1006.5,ESE,107,0.2,1.9,90,0.0,,,0.0,0,0,n/a,2026-09-01T13:14:54Z
2026-09-02 01:19:56,4.7,3.2,1006.6,ESE,107,0.1,1.9,90,0.0,,,0.0,0,0,n/a,2026-09-01T13:19:56Z
2026-09-02 01:24:59,4.7,3.2,1006.6,ESE,107,0.3,1.9,90,0.0,,,0.0,0,0,n/a,2026-09-01T13:24:59Z
2026-09-02 01:29:58,4.7,3.2,1006.6,ESE,107,0.1,1.9,90.5,0.0,,,0.0,0,0,n/a,2026-09-01T13:29:58Z
2026-09-02 01:34:56,4.7,3.3,1006.6,ESE,107,1.2,3.7,91,0.0,,,0.0,0,0,n/a,2026-09-01T13:34:56Z
2026-09-02 01:39:56,4.7,3.3,1006.7,South,170,0.9,3.7,91,0.0,,,0.0,0,0,n/a,2026-09-01T13:39:56Z
2026-09-02 01:44:58,4.6,3.3,1006.8,South,174,1.6,5.6,91,0.0,,,0.0,0,0,n/a,2026-09-01T13:44:58Z
2026-09-02 01:49:54,4.6,3.3,1006.8,South,181,0.7,3.7,91,0.0,,,0.0,0,0,n/a,2026-09-01T13:49:54Z
2026-09-02 01:54:56,4.6,3.3,1006.9,South,181,0.4,3.2,91,0.0,,,0.0,0,0,n/a,2026-09-01T13:54:56Z
2026-09-02 01:59:54,4.6,3.2,1006.9,South,182,0.5,3.7,91,0.0,,,0.0,0,0,n/a,2026-09-01T13:59:54Z
2026-09-02 02:04:56,4.5,3.2,1006.9,South,182,0.1,1.9,91,0.0,,,0.0,0,0,n/a,2026-09-01T14:04:56Z
2026-09-02 02:09:54,4.5,3.1,1006.9,South,182,0.1,1.9,91,0.0,,,0.0,0,0,n/a,2026-09-01T14:09:54Z
2026-09-02 02:14:58,4.4,3.1,1006.9,South,182,0.5,1.9,91,0.0,,,0.0,0,0,n/a,2026-09-01T14:14:58Z
2026-09-02 02:19:57,4.4,3.1,1006.9,South,182,0,1.9,91,0.0,,,0.0,0,0,n/a,2026-09-01T14:19:57Z
2026-09-02 02:24:56,4.4,3.1,1006.6,South,182,0,1.9,91,0.0,,,0.0,0,0,n/a,2026-09-01T14:24:56Z
2026-09-02 02:29:59,4.3,3,1006.5,South,182,0.3,1.9,91,0.0,,,0.0,0,0,n/a,2026-09-01T14:29:59Z
2026-09-02 02:34:54,4.3,3,1006.5,South,182,0,1.9,91,0.0,,,0.0,0,0,n/a,2026-09-01T14:34:54Z
2026-09-02 02:39:59,4.2,2.9,1006.5,South,182,1.9,3.7,91,0.0,,,0.0,0,0,n/a,2026-09-01T14:39:59Z
2026-09-02 02:44:59,4.2,2.8,1006.5,South,183,0.4,3.2,91,0.0,,,0.0,0,0,n/a,2026-09-01T14:44:59Z
2026-09-02 02:49:57,4.1,2.8,1006.4,South,184,0.1,3.7,91,0.0,,,0.0,0,0,n/a,2026-09-01T14:49:57Z
2026-09-02 02:54:59,4,2.7,1006.4,South,184,0.6,1.9,91,0.0,,,0.0,0,0,n/a,2026-09-01T14:54:59Z
2026-09-02 02:59:56,4,2.6,1006.4,South,184,0.2,3.2,91,0.0,,,0.0,0,0,n/a,2026-09-01T14:59:56Z
2026-09-02 03:04:56,4,2.6,1006.3,South,184,0.7,3.7,91,0.0,,,0.0,0,0,n/a,2026-09-01T15:04:56Z
2026-09-02 03:09:54,4,2.7,1006.3,South,184,0.7,3.7,91,0.0,,,0.0,0,0,n/a,2026-09-01T15:09:54Z
2026-09-02 03:14:56,4,2.7,1006.3,WSW,256,2.2,6.4,91,0.0,,,0.0,0,0,n/a,2026-09-01T15:14:56Z
2026-09-02 03:19:54,4,2.7,1006.2,West,279,0.1,1.9,91,0.0,,,0.0,0,0,n/a,2026-09-01T15:19:54Z
2026-09-02 03:24:57,3.9,2.6,1006.1,West,279,0.3,1.9,91,0.0,,,0.0,0,0,n/a,2026-09-01T15:24:57Z
2026-09-02 03:29:54,3.9,2.6,1006.3,West,279,0.2,1.9,91,0.0,,,0.0,0,0,n/a,2026-09-01T15:29:54Z
2026-09-02 03:34:58,3.9,2.5,1006.4,West,279,0.2,1.9,91,0.0,,,0.0,0,0,n/a,2026-09-01T15:34:58Z
2026-09-02 03:39:59,3.8,2.5,1006.2,West,279,0,0,91,0.0,,,0.0,0,0,n/a,2026-09-01T15:39:59Z
2026-09-02 03:44:55,3.8,2.4,1006.3,West,279,0.2,1.9,91,0.0,,,0.0,0,0,n/a,2026-09-01T15:44:55Z
2026-09-02 03:49:54,3.7,2.4,1006.3,West,279,0,1.9,91,0.0,,,0.0,0,0,n/a,2026-09-01T15:49:54Z
2026-09-02 03:54:57,3.6,2.3,1006.3,West,279,0.7,3.7,91,0.0,,,0.0,0,0,n/a,2026-09-01T15:54:57Z
2026-09-02 03:59:57,3.6,2.3,1006.3,West,279,0.2,1.9,91,0.0,,,0.0,0,0,n/a,2026-09-01T15:59:57Z
2026-09-02 04:04:55,3.6,2.3,1006.3,West,279,0.5,3.2,91.2,0.0,,,0.0,0,0,n/a,2026-09-01T16:04:55Z
2026-09-02 04:09:56,3.5,2.2,1006.3,West,279,0.6,3.7,91,0.0,,,0.0,0,0,n/a,2026-09-01T16:09:56Z
2026-09-02 04:14:56,3.5,2.1,1006.4,West,279,0.4,3.2,91,0.0,,,0.0,0,0,n/a,2026-09-01T16:14:56Z
2026-09-02 04:19:55,3.5,2.2,1006.4,West,277,2.5,5.6,91.5,0.0,,,0.0,0,0,n/a,2026-09-01T16:19:55Z
2026-09-02 04:24:56,3.5,2.3,1006.4,West,277,2.1,5.6,91.8,0.0,,,0.0,0,0,n/a,2026-09-01T16:24:56Z
2026-09-02 04:29:57,3.3,2.1,1006.3,West,277,1.2,3.7,91.6,0.0,,,0.0,0,0,n/a,2026-09-01T16:29:57Z
2026-09-02 04:34:54,3.4,2.2,1006.3,West,277,0.8,3.7,92,0.0,,,0.0,0,0,n/a,2026-09-01T16:34:54Z
2026-09-02 04:39:54,3.4,2.3,1006.5,West,274,2.4,5.6,92,0.0,,,0.0,0,0,n/a,2026-09-01T16:39:54Z
2026-09-02 04:44:58,3.5,2.3,1006.6,West,274,0.6,1.9,92,0.0,,,0.0,0,0,n/a,2026-09-01T16:44:58Z
2026-09-02 04:49:57,3.6,2.4,1006.7,West,274,0.6,1.9,92,0.0,,,0.0,0,0,n/a,2026-09-01T16:49:57Z
2026-09-02 04:54:56,3.5,2.4,1006.7,West,274,0,1.9,92,0.0,,,0.0,0,0,n/a,2026-09-01T16:54:56Z
2026-09-02 04:59:54,3.5,2.3,1006.7,West,274,0.2,1.9,92,0.0,,,0.0,0,0,n/a,2026-09-01T16:59:54Z
2026-09-02 05:04:58,3.4,2.2,1006.7,West,274,0.6,1.9,92,0.0,,,0.0,0,0,n/a,2026-09-01T17:04:58Z
2026-09-02 05:09:59,3.3,2.1,1006.8,West,274,0.2,1.9,92,0.0,,,0.0,0,0,n/a,2026-09-01T17:09:59Z
2026-09-02 05:14:58,3.3,2.1,1006.7,West,274,0,0,92,0.0,,,0.0,0,0,n/a,2026-09-01T17:14:58Z
2026-09-02 05:19:57,3.2,2,1006.6,West,274,0.3,3.7,92,0.0,,,0.0,0,0,n/a,2026-09-01T17:19:57Z
2026-09-02 05:24:57,3.1,1.9,1006.6,West,274,0,1.6,92,0.0,,,0.0,0,0,n/a,2026-09-01T17:24:57Z
2026-09-02 05:29:55,3,1.9,1006.6,West,274,0.4,3.7,92,0.0,,,0.0,0,0,n/a,2026-09-01T17:29:55Z
2026-09-02 05:34:54,3,1.8,1006.7,West,274,0.9,3.7,92,0.0,,,0.0,0,0,n/a,2026-09-01T17:34:54Z
2026-09-02 05:39:55,3,1.8,1006.7,West,274,0.3,1.9,92,0.0,,,0.0,0,0,n/a,2026-09-01T17:39:55Z
2026-09-02 05:44:55,2.9,1.8,1006.8,West,274,0.2,1.9,92,0.0,,,0.0,0,0,n/a,2026-09-01T17:44:55Z
2026-09-02 05:49:54,2.9,1.7,1006.8,West,274,0.2,1.9,92,0.0,,,0.0,0,0,n/a,2026-09-01T17:49:54Z
2026-09-02 05:54:59,2.8,1.6,1006.8,West,274,0,1.9,92,0.0,,,0.0,0,0,n/a,2026-09-01T17:54:59Z
2026-09-02 05:59:56,2.7,1.6,1006.7,West,274,0,1.9,92,0.0,,,0.0,0,0,n/a,2026-09-01T17:59:56Z
2026-09-02 06:04:55,2.7,1.5,1006.8,West,274,0,1.9,92,0.0,,,0.0,0,0,n/a,2026-09-01T18:04:55Z
2026-09-02 06:09:56,2.6,1.5,1006.8,West,274,0.3,1.9,92,0.0,,,0.0,0,0,n/a,2026-09-01T18:09:56Z
2026-09-02 06:14:55,2.6,1.4,1006.8,West,274,0.3,3.2,92,0.0,,,0.0,0,0,n/a,2026-09-01T18:14:55Z
2026-09-02 06:19:59,2.6,1.4,1006.7,West,274,0.4,3.7,92,0.0,,,0.0,0,0,n/a,2026-09-01T18:19:59Z
2026-09-02 06:24:54,2.5,1.4,1006.7,West,274,0,1.9,92,0.0,,,0.0,0,0,n/a,2026-09-01T18:24:54Z
2026-09-02 06:29:58,2.5,1.3,1006.8,West,274,0,1.6,92,0.0,,,0.0,0,0,n/a,2026-09-01T18:29:58Z
2026-09-02 06:34:56,2.4,1.2,1006.7,West,274,0.8,3.7,92,0.0,,,0.0,0,0,n/a,2026-09-01T18:34:56Z
2026-09-02 06:39:56,2.3,1.1,1006.9,West,274,0.2,3.7,92,0.0,,,0.0,0,0,n/a,2026-09-01T18:39:56Z
2026-09-02 06:44:55,2.2,1,1006.8,West,274,0.5,3.2,92,0.0,,,0.0,0,0,n/a,2026-09-01T18:44:55Z
2026-09-02 06:49:53,2.2,1,1006.9,West,274,1.7,6.4,92,0.0,,,0.0,0,0,n/a,2026-09-01T18:49:53Z
2026-09-02 06:54:57,2.2,1.1,1007.0,West,277,1.2,5.6,92,0.0,,,0.0,0,0,n/a,2026-09-01T18:54:57Z
2026-09-02 06:59:56,2.3,1.1,1007.0,West,280,0.4,1.9,92,0.0,,,0.0,5,0,n/a,2026-09-01T18:59:56Z
2026-09-02 07:04:58,2.2,1.1,1007.0,West,280,1.2,5.6,92,0.0,,,0.0,11,0,n/a,2026-09-01T19:04:58Z
2026-09-02 07:09:59,2.3,1.1,1006.9,West,280,0.6,1.9,92,0.0,,,0.0,16,0,n/a,2026-09-01T19:09:59Z
2026-09-02 07:14:54,2.3,1.1,1007.0,West,280,0.7,3.7,92,0.0,,,0.0,25,0,n/a,2026-09-01T19:14:54Z
2026-09-02 07:19:54,2.3,1.1,1007.0,West,280,0.3,1.9,92,0.0,,,0.0,35,0,n/a,2026-09-01T19:19:54Z
2026-09-02 07:24:55,2.4,1.2,1007.0,West,280,0.1,1.9,92,0.0,,,0.0,44,0,n/a,2026-09-01T19:24:55Z
2026-09-02 07:29:56,2.5,1.3,1007.1,West,280,0,0,92,0.0,,,0.0,51,0,n/a,2026-09-01T19:29:56Z
2026-09-02 07:34:57,2.7,1.6,1007.2,West,280,0,0,92.7,0.0,,,0.0,54,0,n/a,2026-09-01T19:34:57Z
2026-09-02 07:39:21,2.9,1.9,1007.1,West,280,0,0,93,0.0,,,0.0,56,0,n/a,2026-09-01T19:39:21Z
2026-09-02 07:44:45,3,2,1007.1,West,280,0,0,93,0.0,,,0.0,56,0,n/a,2026-09-01T19:44:45Z
2026-09-02 07:49:57,3.4,2.4,1007.2,West,280,0,0,93,0.0,,,0.0,113,0,n/a,2026-09-01T19:49:57Z
2026-09-02 07:54:57,3.6,2.6,1007.3,West,280,0.1,3.2,93,0.0,,,0.0,120,0,n/a,2026-09-01T19:54:57Z
2026-09-02 07:59:58,4,2.9,1007.3,West,280,0.8,3.7,93,0.0,,,0.0,111,0,n/a,2026-09-01T19:59:58Z
2026-09-02 08:04:58,4.2,3.1,1007.3,West,280,0,1.9,93,0.0,,,0.0,114,0,n/a,2026-09-01T20:04:58Z
2026-09-02 08:09:55,4.4,3.3,1007.4,West,280,0.1,1.9,93,0.0,,,0.0,179,0,n/a,2026-09-01T20:09:55Z
2026-09-02 08:14:55,4.7,3.7,1007.4,West,280,0,1.9,93,0.0,,,0.0,178,0,n/a,2026-09-01T20:14:55Z
2026-09-02 08:19:55,5,3.9,1007.4,West,280,0.4,1.9,93,0.0,,,0.0,130,0,n/a,2026-09-01T20:19:55Z
2026-09-02 08:24:59,5.3,4.3,1007.4,West,280,1.7,3.7,93,0.0,,,0.0,141,0,n/a,2026-09-01T20:24:59Z
2026-09-02 08:29:59,5.6,4.5,1007.4,West,280,0.7,3.7,93,0.0,,,0.0,149,0,n/a,2026-09-01T20:29:59Z
2026-09-02 08:34:58,5.7,4.6,1007.5,West,280,0.2,1.9,93,0.0,,,0.0,171,0,n/a,2026-09-01T20:34:58Z
2026-09-02 08:39:59,5.8,4.8,1007.5,West,280,0.1,1.9,93,0.0,,,0.0,211,0,n/a,2026-09-01T20:39:59Z
2026-09-02 08:44:59,6.3,5.2,1007.4,West,280,1.1,3.7,93,0.0,,,0.0,211,0,n/a,2026-09-01T20:44:59Z
2026-09-02 08:49:58,6.6,5.6,1007.4,West,280,0.6,1.9,93,0.0,,,0.0,156,0,n/a,2026-09-01T20:49:58Z
2026-09-02 08:54:57,7,5.9,1007.4,West,280,0.6,1.9,93,0.0,,,0.0,128,0,n/a,2026-09-01T20:54:57Z
2026-09-02 08:59:58,7.3,6.2,1007.5,West,280,0.6,3.7,93,0.0,,,0.0,114,0,n/a,2026-09-01T20:59:58Z
2026-09-02 09:04:56,7.5,6.4,1007.5,West,280,0.2,1.9,93,0.0,,,0.0,107,0,n/a,2026-09-01T21:04:56Z
2026-09-02 09:09:54,7.7,6.7,1007.4,West,280,0,0,93,0.0,,,0.0,102,0,n/a,2026-09-01T21:09:54Z
2026-09-02 09:14:54,7.9,6.8,1007.5,West,280,0,0,92.7,0.0,,,0.0,98,0,n/a,2026-09-01T21:14:54Z
2026-09-02 09:19:59,8.1,6.9,1007.4,West,280,0,0,92,0.0,,,0.0,100,0,n/a,2026-09-01T21:19:59Z
2026-09-02 09:24:54,8.2,7,1007.3,West,280,0,0,92,0.0,,,0.0,100,0,n/a,2026-09-01T21:24:54Z
2026-09-02 09:29:58,8.3,7.1,1007.4,West,280,0,0,92,0.0,,,0.0,105,0,n/a,2026-09-01T21:29:58Z
2026-09-02 09:34:57,8.4,7.2,1007.2,West,280,0,0,91.9,0.0,,,0.0,109,0.5,n/a,2026-09-01T21:34:57Z
2026-09-02 09:39:59,8.4,7.1,1007.2,West,280,0.8,3.7,91,0.0,,,0.0,111,0.5,n/a,2026-09-01T21:39:59Z
2026-09-02 09:44:58,8.5,7.1,1007.2,West,280,0.1,1.9,91,0.0,,,0.0,111,0.5,n/a,2026-09-01T21:44:58Z
2026-09-02 09:49:59,8.6,7.2,1007.2,West,280,0.2,1.9,91,0.0,,,0.0,109,0.5,n/a,2026-09-01T21:49:59Z
2026-09-02 09:54:59,8.7,7.3,1007.1,West,280,0,1.9,91,0.0,,,0.0,111,0.5,n/a,2026-09-01T21:54:59Z
2026-09-02 09:59:58,8.8,7.4,1007.0,West,280,0,0,91,0.0,,,0.0,116,0.5,n/a,2026-09-01T21:59:58Z
2026-09-02 10:04:59,8.9,7.5,1007.0,West,280,0,0,91,0.0,,,0.0,125,0.6,n/a,2026-09-01T22:04:59Z
2026-09-02 10:09:56,9,7.6,1007.1,West,280,0.2,1.9,91,0.0,,,0.0,132,0.6,n/a,2026-09-01T22:09:56Z
2026-09-02 10:14:56,9.1,7.7,1007.1,West,280,0,1.9,91,0.0,,,0.0,141,0.7,n/a,2026-09-01T22:14:56Z
2026-09-02 10:19:56,9.2,7.8,1007.1,West,280,0,0,91,0.0,,,0.0,146,0.7,n/a,2026-09-01T22:19:56Z
2026-09-02 10:24:56,9.3,7.9,1007.1,West,280,0,0,90.8,0.0,,,0.0,153,0.8,n/a,2026-09-01T22:24:56Z
2026-09-02 10:29:56,9.5,8.1,1007.1,West,280,0,0,91,0.0,,,0.0,153,0.8,n/a,2026-09-01T22:29:56Z
2026-09-02 10:34:55,9.7,8.3,1007.1,West,280,0,0,91,0.0,,,0.0,156,0.8,n/a,2026-09-01T22:34:55Z
2026-09-02 10:39:55,9.9,8.4,1007.0,West,280,0,0,90.5,0.0,,,0.0,165,0.8,n/a,2026-09-01T22:39:55Z
2026-09-02 10:44:55,10.1,8.5,1007.0,West,280,1.3,3.7,90.1,0.0,,,0.0,169,0.9,n/a,2026-09-01T22:44:55Z
2026-09-02 10:49:54,10.3,8.8,1007.1,West,280,1.9,3.7,90,0.0,,,0.0,169,0.9,n/a,2026-09-01T22:49:54Z
2026-09-02 10:54:58,10.5,8.8,1007.1,SSE,148,1.6,5.6,89.1,0.0,,,0.0,163,0.8,n/a,2026-09-01T22:54:58Z
2026-09-02 10:59:59,10.7,8.8,1007.1,SE,146,2.1,5.6,87.9,0.0,,,0.0,163,0.9,n/a,2026-09-01T22:59:59Z
2026-09-02 11:04:57,10.9,8.8,1007.1,SE,146,0.6,3.7,86.8,0.0,,,0.0,163,0.9,n/a,2026-09-01T23:04:57Z
2026-09-02 11:09:57,10.9,8.6,1007.1,SE,146,0.6,1.9,85.8,0.0,,,0.0,153,0.8,n/a,2026-09-01T23:09:57Z
2026-09-02 11:14:55,11.1,8.6,1007.0,SE,146,0.1,1.9,84.9,0.0,,,0.0,142,0.8,n/a,2026-09-01T23:14:55Z
2026-09-02 11:19:54,11.2,8.5,1007.0,SE,146,0,1.9,83.8,0.0,,,0.0,142,0.8,n/a,2026-09-01T23:19:54Z
2026-09-02 11:24:54,11.3,8.4,1007.0,SE,146,0.1,1.6,82.3,0.0,,,0.0,148,0.8,n/a,2026-09-01T23:24:54Z
2026-09-02 11:29:54,11.5,8.6,1007.0,SE,146,0.8,3.7,82.3,0.0,,,0.0,149,0.8,n/a,2026-09-01T23:29:54Z
2026-09-02 11:34:54,11.6,8.7,1007.0,SE,146,0,0,82,0.0,,,0.0,149,0.8,n/a,2026-09-01T23:34:54Z
2026-09-02 11:39:56,11.7,8.7,1006.9,SE,146,0,0,82,0.0,,,0.0,142,0.8,n/a,2026-09-01T23:39:56Z
2026-09-02 11:44:56,11.9,8.9,1006.9,SE,146,0,1.6,82,0.0,,,0.0,141,0.8,n/a,2026-09-01T23:44:56Z
2026-09-02 11:49:54,12,9,1007.0,SE,146,1.6,3.7,82,0.0,,,0.0,151,0.9,n/a,2026-09-01T23:49:54Z
2026-09-02 11:54:55,12.1,9.1,1007.1,SE,146,0,1.9,82,0.0,,,0.0,160,0.9,n/a,2026-09-01T23:54:55Z
2026-09-02 11:59:54,12.1,9,1007.1,SE,146,0,0,81.3,0.0,,,0.0,160,0.9,n/a,2026-09-01T23:59:54Z
2026-09-02 12:04:55,12.2,9,1007.0,SE,146,0,0,81,0.0,,,0.0,160,0.9,n/a,2026-09-02T00:04:55Z
2026-09-02 12:09:57,12.3,9.1,1007.0,SE,146,0,0,81,0.0,,,0.0,162,0.9,n/a,2026-09-02T00:09:57Z
2026-09-02 12:14:57,12.4,9.2,1006.9,SE,146,0,0,81,0.0,,,0.0,162,0.9,n/a,2026-09-02T00:14:57Z
2026-09-02 12:19:55,12.5,9,1006.8,WNW,293,1.4,11.3,79.4,0.0,,,0.0,158,0.9,n/a,2026-09-02T00:19:55Z
2026-09-02 12:24:55,12.7,8.5,1006.6,WNW,297,2.4,5.6,75.5,0.0,,,0.0,165,0.9,n/a,2026-09-02T00:24:55Z
2026-09-02 12:29:55,13,8.1,1006.4,WNW,287,4.2,11.3,72.3,0.0,,,0.0,176,1,n/a,2026-09-02T00:29:55Z
2026-09-02 12:34:55,13.5,7.8,1006.3,WNW,285,2.9,11.1,68.1,0.0,,,0.0,178,1,n/a,2026-09-02T00:34:55Z
2026-09-02 12:39:57,13.9,7.3,1006.3,West,280,2.1,6.4,64.4,0.0,,,0.0,178,1,n/a,2026-09-02T00:39:57Z
2026-09-02 12:44:56,14.2,7.2,1006.2,WSW,258,1.4,9.7,62.7,0.0,,,0.0,172,1,n/a,2026-09-02T00:44:56Z
2026-09-02 12:49:56,14.5,6.9,1006.1,WNW,284,2.9,16.7,60.3,0.0,,,0.0,178,1,n/a,2026-09-02T00:49:56Z
2026-09-02 12:54:56,14.9,6.8,1006.0,NW,318,0.6,5.6,58.6,0.0,,,0.0,179,1,n/a,2026-09-02T00:54:56Z
2026-09-02 12:59:55,15.1,6.8,1006.0,NW,318,0.4,3.7,57.7,0.0,,,0.0,179,1,n/a,2026-09-02T00:59:55Z
2026-09-02 13:04:55,15.3,7.1,1005.9,NW,317,1.3,12.9,58.2,0.0,,,0.0,174,1,n/a,2026-09-02T01:04:55Z
2026-09-02 13:09:54,15.5,6.5,1005.7,NW,318,3.8,13,54.9,0.0,,,0.0,179,1,n/a,2026-09-02T01:09:54Z
2026-09-02 13:14:55,15.7,6.2,1005.5,WNW,296,4.3,19.3,53.2,0.0,,,0.0,185,1,n/a,2026-09-02T01:14:55Z
2026-09-02 13:19:54,16,6.2,1005.4,WNW,293,4.6,13,52.4,0.0,,,0.0,185,1,n/a,2026-09-02T01:19:54Z
2026-09-02 13:24:59,16.3,5.8,1005.4,West,274,8.6,22.5,50,0.0,,,0.0,183,1,n/a,2026-09-02T01:24:59Z
2026-09-02 13:29:59,16.6,5.6,1005.3,WNW,286,10.1,22.5,48.1,0.0,,,0.0,179,1,n/a,2026-09-02T01:29:59Z
2026-09-02 13:34:59,16.8,5.4,1005.2,West,280,11.5,31.5,47,0.0,,,0.0,181,1,n/a,2026-09-02T01:34:59Z
2026-09-02 13:39:56,17,5.3,1005.1,West,279,13.9,33.8,46.2,0.0,,,0.0,183,1,n/a,2026-09-02T01:39:56Z
2026-09-02 13:44:56,17.1,5.3,1005.0,West,277,13.3,22.5,45.8,0.0,,,0.0,183,1,n/a,2026-09-02T01:44:56Z
2026-09-02 13:49:54,17.1,5.2,1005.1,West,277,12.7,22.5,45.3,0.0,,,0.0,181,1,n/a,2026-09-02T01:49:54Z
2026-09-02 13:54:55,17.2,5.1,1005.2,West,277,12.9,24.1,44.8,0.0,,,0.0,176,1,n/a,2026-09-02T01:54:55Z
2026-09-02 13:59:54,17.3,5.1,1005.2,WNW,285,13.9,29.6,44.7,0.0,,,0.0,172,0.9,n/a,2026-09-02T01:59:54Z
2026-09-02 14:04:54,17.3,5.2,1005.1,West,281,12.4,20.4,44.8,0.0,,,0.0,162,0.9,n/a,2026-09-02T02:04:54Z
2026-09-02 14:09:55,17.2,5.3,1005.1,WNW,283,10.7,19.3,45.5,0.0,,,0.0,153,0.8,n/a,2026-09-02T02:09:55Z
2026-09-02 14:14:59,17.1,5.3,1005.0,WNW,284,11.7,24.1,45.7,0.0,,,0.0,141,0.7,n/a,2026-09-02T02:14:59Z
2026-09-02 14:19:54,17.1,5.5,1004.9,WNW,286,11.4,24.1,46.6,0.0,,,0.0,139,0.7,n/a,2026-09-02T02:19:54Z
2026-09-02 14:24:58,17,5.8,1004.8,WNW,299,5.9,18.5,47.5,0.0,,,0.0,137,0.7,n/a,2026-09-02T02:24:58Z
2026-09-02 14:29:57,16.9,5.8,1004.9,NW,314,6.4,16.7,47.8,0.0,,,0.0,137,0.7,n/a,2026-09-02T02:29:57Z
2026-09-02 14:34:57,16.8,5.7,1004.8,NW,318,6.5,14.8,48,0.0,,,0.0,137,0.7,n/a,2026-09-02T02:34:57Z
2026-09-02 14:39:57,16.8,5.9,1004.6,NW,317,5,14.8,48.5,0.0,,,0.0,135,0.6,n/a,2026-09-02T02:39:57Z
2026-09-02 14:44:56,16.8,5.9,1004.6,NW,323,4.8,9.7,48.5,0.0,,,0.0,139,0.6,n/a,2026-09-02T02:44:56Z
2026-09-02 14:49:56,16.8,5.9,1004.5,WNW,296,7.4,19.3,48.6,0.0,,,0.0,139,0.6,n/a,2026-09-02T02:49:56Z
2026-09-02 14:54:58,16.8,5.9,1004.3,WNW,294,7.9,16.7,48.5,0.0,,,0.0,137,0.6,n/a,2026-09-02T02:54:58Z
2026-09-02 14:59:58,16.8,5.9,1004.2,WNW,300,8.4,16.7,48.7,0.0,,,0.0,139,0.6,n/a,2026-09-02T02:59:58Z
2026-09-02 15:04:57,16.8,6.1,1004.1,West,278,9.9,19.3,49.2,0.0,,,0.0,142,0.6,n/a,2026-09-02T03:04:57Z
2026-09-02 15:09:54,16.9,6.1,1004.2,WNW,285,9,18.5,49,0.0,,,0.0,151,0.6,n/a,2026-09-02T03:09:54Z
2026-09-02 15:14:54,17,6.1,1004.1,WNW,286,8.3,22.5,48.8,0.0,,,0.0,151,0.5,n/a,2026-09-02T03:14:54Z
2026-09-02 15:19:59,17,6.3,1004.2,WNW,292,7.1,14.8,49.3,0.0,,,0.0,144,0.5,n/a,2026-09-02T03:19:59Z
2026-09-02 15:24:59,17.1,6.2,1004.2,West,277,10.6,24.1,48.7,0.0,,,0.0,142,0.5,n/a,2026-09-02T03:24:59Z
2026-09-02 15:29:58,17.1,6.2,1004.1,WNW,286,10.5,20.9,48.8,0.0,,,0.0,137,0.5,n/a,2026-09-02T03:29:58Z
2026-09-02 15:34:57,17.1,6.4,1004.2,WNW,292,10.3,19.3,49.4,0.0,,,0.0,137,0,n/a,2026-09-02T03:34:57Z
2026-09-02 15:39:59,17.1,6.5,1004.2,WNW,288,9.8,24.1,49.8,0.0,,,0.0,132,0,n/a,2026-09-02T03:39:59Z
2026-09-02 15:44:54,17,6.5,1004.1,WNW,291,11,30.6,49.8,0.0,,,0.0,120,0,n/a,2026-09-02T03:44:54Z
2026-09-02 15:49:54,17,6.5,1004.1,WNW,300,12.3,31.5,50.2,0.0,,,0.0,127,0,n/a,2026-09-02T03:49:54Z
2026-09-02 15:54:59,16.9,6.6,1004.1,WNW,299,11.3,25.9,50.8,0.0,,,0.0,132,0,n/a,2026-09-02T03:54:59Z
2026-09-02 15:59:58,16.9,6.6,1004.0,WNW,301,11.8,20.9,50.8,0.0,,,0.0,165,0,n/a,2026-09-02T03:59:58Z
2026-09-02 16:04:57,17,6.7,1004.0,WNW,298,11.2,19.3,50.8,0.0,,,0.0,183,0,n/a,2026-09-02T04:04:57Z
2026-09-02 16:09:55,17.1,6.8,1004.0,NW,309,10.2,19.3,50.7,0.0,,,0.0,204,0,n/a,2026-09-02T04:09:55Z
2026-09-02 16:14:54,17.2,6.9,1004.0,WNW,297,8,17.7,50.9,0.0,,,0.0,213,0,n/a,2026-09-02T04:14:54Z